createdAt,value
2019-01-05T00:00:01.311Z,56.58
2019-01-05T00:03:11.499Z,56.28
2019-01-05T00:06:04.508Z,56.81
2019-01-05T00:09:00.548Z,56.99
2019-01-05T00:12:08.151Z,56.53
2019-01-05T00:15:01.658Z,55.63
2019-01-05T00:18:03.273Z,56.42
2019-01-05T00:21:06.082Z,55.45
2019-01-05T00:24:01.627Z,55.83
2019-01-05T00:27:00.207Z,55.90
2019-01-05T00:30:01.896Z,55.42
2019-01-05T00:33:04.844Z,55.71
2019-01-05T00:36:31.367Z,57.55
2019-01-05T00:39:28.730Z,56.85
2019-01-05T00:42:19.880Z,56.95
2019-01-05T00:45:09.883Z,56.09
2019-01-05T00:48:01.725Z,56.01
2019-01-05T00:51:11.467Z,56.65
2019-01-05T00:54:11.680Z,56.82
2019-01-05T00:57:16.028Z,56.68
2019-01-05T01:03:36.475Z,56.15
2019-01-05T01:06:39.159Z,56.17
2019-01-05T01:09:32.026Z,55.99
2019-01-05T01:12:34.890Z,55.45
2019-01-05T01:15:24.764Z,55.62
2019-01-05T01:18:14.128Z,54.83
2019-01-05T01:21:05.259Z,56.40
2019-01-05T01:23:58.232Z,57.36
2019-01-05T01:27:16.081Z,57.40
2019-01-05T01:30:09.424Z,56.21
2019-01-05T01:32:59.836Z,56.48
2019-01-05T01:35:48.845Z,56.22
2019-01-05T01:39:08.132Z,56.22
2019-01-05T01:42:04.153Z,55.86
2019-01-05T01:44:57.606Z,55.38
2019-01-05T01:47:57.360Z,55.95
2019-01-05T01:50:53.815Z,56.00
2019-01-05T01:53:43.334Z,55.51
2019-01-05T01:56:56.107Z,55.75
2019-01-05T02:00:00.514Z,56.08
2019-01-05T02:03:08.070Z,55.62
2019-01-05T02:06:04.674Z,56.92
2019-01-05T02:09:02.074Z,56.00
2019-01-05T02:12:01.874Z,55.06
2019-01-05T02:14:59.227Z,56.05
2019-01-05T02:18:00.512Z,56.39
2019-01-05T02:21:14.850Z,56.89
2019-01-05T02:24:40.947Z,57.04
2019-01-05T02:28:16.078Z,56.93
2019-01-05T02:31:43.727Z,56.08
2019-01-05T02:35:11.234Z,56.57
2019-01-05T02:39:10.263Z,56.69
2019-01-05T02:42:24.343Z,56.43
2019-01-05T02:46:01.162Z,56.01
2019-01-05T02:49:22.169Z,56.20
2019-01-05T02:56:46.586Z,57.53
2019-01-05T03:00:06.051Z,58.06
2019-01-05T03:07:33.676Z,58.44
2019-01-05T03:11:05.074Z,59.18
2019-01-05T03:14:51.082Z,58.58
2019-01-05T03:18:36.252Z,57.83
2019-01-05T03:22:27.559Z,57.97
2019-01-05T03:25:53.993Z,58.33
2019-01-05T03:29:56.137Z,58.66
2019-01-05T03:33:54.140Z,58.67
2019-01-05T03:37:26.639Z,59.08
2019-01-05T03:40:51.914Z,59.96
2019-01-05T03:44:37.340Z,58.74
2019-01-05T03:48:40.241Z,58.46
2019-01-05T03:52:12.152Z,58.52
2019-01-05T03:55:51.222Z,59.07
2019-01-05T03:59:45.152Z,58.83
2019-01-05T04:03:20.048Z,58.94
2019-01-05T04:06:45.936Z,58.86
2019-01-05T04:10:37.615Z,58.99
2019-01-05T04:14:20.232Z,58.67
2019-01-05T04:17:57.775Z,59.27
2019-01-05T04:21:30.877Z,59.47
2019-01-05T04:24:52.488Z,59.22
2019-01-05T04:28:25.441Z,60.57
2019-01-05T04:32:23.530Z,59.95
2019-01-05T04:35:57.137Z,59.89
2019-01-05T04:39:32.118Z,59.50
2019-01-05T04:43:10.197Z,59.11
2019-01-05T04:46:25.582Z,59.83
2019-01-05T04:50:02.798Z,60.81
2019-01-05T04:53:37.993Z,60.04
2019-01-05T04:57:02.364Z,60.30
2019-01-05T05:00:34.398Z,59.91
2019-01-05T05:04:12.934Z,62.14
2019-01-05T05:07:30.535Z,61.38
2019-01-05T05:10:56.006Z,60.82
2019-01-05T05:14:33.086Z,60.75
2019-01-05T05:17:58.361Z,61.29
2019-01-05T05:21:31.855Z,61.71
2019-01-05T05:28:29.414Z,62.19
2019-01-05T05:31:55.129Z,62.17
2019-01-05T05:35:36.226Z,62.53
2019-01-05T05:39:01.607Z,63.62
2019-01-05T05:42:33.294Z,62.30
2019-01-05T05:46:27.203Z,62.66
2019-01-05T05:49:57.250Z,62.05
2019-01-05T05:57:06.062Z,62.30
2019-01-05T06:01:05.841Z,61.62
2019-01-05T06:04:30.874Z,62.21
2019-01-05T06:08:06.348Z,63.19
2019-01-05T06:11:39.433Z,63.31
2019-01-05T06:15:20.967Z,63.19
2019-01-05T06:18:49.980Z,63.20
2019-01-05T06:22:15.734Z,62.91
2019-01-05T06:25:52.277Z,63.35
2019-01-05T06:29:40.159Z,62.98
2019-01-05T06:33:11.096Z,63.58
2019-01-05T06:36:39.801Z,63.35
2019-01-05T06:40:31.105Z,62.75
2019-01-05T06:44:13.681Z,62.50
2019-01-05T06:48:09.552Z,62.89
2019-01-05T06:51:57.254Z,61.98
2019-01-05T06:55:24.641Z,62.13
2019-01-05T06:58:39.832Z,61.39
2019-01-05T07:02:05.377Z,62.18
2019-01-05T07:05:47.417Z,62.12
2019-01-05T07:09:26.625Z,62.17
2019-01-05T07:12:59.575Z,63.01
2019-01-05T07:16:42.005Z,61.44
2019-01-05T07:20:10.978Z,62.33
2019-01-05T07:23:52.170Z,64.21
2019-01-05T07:27:39.668Z,63.77
2019-01-05T07:31:14.161Z,63.68
2019-01-05T07:35:00.819Z,62.99
2019-01-05T07:38:13.370Z,63.16
2019-01-05T07:42:17.557Z,62.88
2019-01-05T07:45:46.483Z,64.46
2019-01-05T07:49:08.735Z,65.44
2019-01-05T07:52:34.596Z,64.82
2019-01-05T07:56:29.214Z,64.91
2019-01-05T08:00:04.121Z,64.65
2019-01-05T08:03:43.388Z,65.23
2019-01-05T08:07:21.248Z,64.01
2019-01-05T08:11:03.897Z,64.05
2019-01-05T08:14:32.900Z,65.38
2019-01-05T08:18:04.639Z,63.90
2019-01-05T08:21:34.174Z,63.15
2019-01-05T08:25:19.362Z,62.88
2019-01-05T08:28:58.520Z,62.95
2019-01-05T08:32:59.310Z,63.28
2019-01-05T08:36:34.589Z,62.35
2019-01-05T08:40:28.589Z,62.58
2019-01-05T08:44:30.692Z,62.00
2019-01-05T08:48:09.114Z,62.50
2019-01-05T08:51:44.049Z,62.68
2019-01-05T08:55:16.315Z,63.84
2019-01-05T08:58:55.592Z,65.28
2019-01-05T09:02:34.619Z,64.44
2019-01-05T09:05:58.987Z,65.41
2019-01-05T09:09:28.457Z,64.57
2019-01-05T09:12:52.046Z,63.84
2019-01-05T09:16:24.757Z,64.60
2019-01-05T09:20:07.765Z,63.87
2019-01-05T09:23:31.378Z,65.49
2019-01-05T09:26:59.622Z,65.03
2019-01-05T09:30:37.677Z,64.80
2019-01-05T09:34:19.245Z,64.23
2019-01-05T09:38:23.896Z,64.44
2019-01-05T09:42:11.047Z,63.86
2019-01-05T09:45:40.294Z,64.60
2019-01-05T09:49:05.031Z,66.29
2019-01-05T09:52:36.739Z,64.69
2019-01-05T09:56:00.586Z,64.80
2019-01-05T09:59:27.394Z,65.89
2019-01-05T10:03:08.735Z,65.52
2019-01-05T10:06:35.674Z,65.32
2019-01-05T10:10:32.558Z,65.58
2019-01-05T10:14:02.532Z,64.76
2019-01-05T10:17:37.094Z,64.62
2019-01-05T10:21:19.710Z,64.87
2019-01-05T10:24:56.774Z,64.26
2019-01-05T10:28:39.612Z,66.49
2019-01-05T10:32:09.782Z,66.29
2019-01-05T10:35:51.760Z,64.97
2019-01-05T10:39:18.415Z,64.16
2019-01-05T10:42:58.043Z,63.56
2019-01-05T10:46:24.716Z,62.70
2019-01-05T10:50:22.600Z,62.30
2019-01-05T10:54:22.518Z,62.64
2019-01-05T10:57:52.958Z,63.77
2019-01-05T11:01:42.646Z,63.13
2019-01-05T11:05:44.792Z,62.16
2019-01-05T11:09:49.572Z,62.92
2019-01-05T11:13:44.225Z,61.95
2019-01-05T11:17:12.594Z,63.64
2019-01-05T11:20:35.850Z,62.90
2019-01-05T11:24:25.831Z,62.54
2019-01-05T11:28:20.940Z,63.98
2019-01-05T11:31:47.986Z,64.25
2019-01-05T11:38:49.799Z,63.47
2019-01-05T11:42:11.945Z,63.74
2019-01-05T11:45:30.881Z,65.87
2019-01-05T11:49:33.926Z,64.66
2019-01-05T11:53:04.641Z,64.78
2019-01-05T11:56:58.113Z,64.74
2019-01-05T12:00:22.965Z,63.78
2019-01-05T12:04:30.111Z,65.16
2019-01-05T12:08:19.386Z,64.54
2019-01-05T12:12:15.537Z,63.54
2019-01-05T12:15:51.003Z,64.00
2019-01-05T12:19:25.173Z,64.83
2019-01-05T12:23:07.003Z,63.54
2019-01-05T12:27:03.130Z,63.95
2019-01-05T12:30:35.591Z,62.75
2019-01-05T12:34:14.360Z,65.27
2019-01-05T12:37:44.696Z,63.77
2019-01-05T12:41:11.028Z,62.43
2019-01-05T12:48:46.516Z,61.83
2019-01-05T12:52:12.535Z,61.20
2019-01-05T12:55:47.849Z,61.70
2019-01-05T12:59:35.859Z,63.23
2019-01-05T13:03:23.688Z,62.70
2019-01-05T13:06:51.369Z,62.05
2019-01-05T13:10:26.434Z,64.59
2019-01-05T13:13:55.732Z,63.59
2019-01-05T13:17:26.284Z,62.84
2019-01-05T13:20:42.877Z,63.04
2019-01-05T13:24:12.031Z,63.83
2019-01-05T13:27:57.260Z,63.48
2019-01-05T13:31:41.422Z,62.53
2019-01-05T13:35:14.546Z,63.27
2019-01-05T13:38:55.508Z,64.48
2019-01-05T13:42:31.157Z,64.80
2019-01-05T13:46:34.955Z,64.44
2019-01-05T13:50:12.571Z,63.48
2019-01-05T13:53:30.256Z,62.88
2019-01-05T13:56:58.390Z,62.87
2019-01-05T14:00:14.094Z,62.11
2019-01-05T14:03:11.423Z,61.83
2019-01-05T14:06:20.270Z,63.60
2019-01-05T14:09:16.312Z,62.10
2019-01-05T14:12:28.631Z,61.78
2019-01-05T14:15:23.837Z,61.63
2019-01-05T14:18:17.561Z,62.00
2019-01-05T14:21:14.037Z,61.61
2019-01-05T14:23:57.269Z,60.99
2019-01-05T14:26:50.851Z,60.83
2019-01-05T14:29:50.753Z,59.74
2019-01-05T14:32:47.097Z,59.22
2019-01-05T14:35:50.388Z,59.39
2019-01-05T14:38:54.885Z,59.52
2019-01-05T14:41:53.810Z,60.13
2019-01-05T14:44:52.463Z,59.34
2019-01-05T14:47:54.351Z,60.15
2019-01-05T14:50:48.781Z,59.56
2019-01-05T14:53:38.445Z,59.34
2019-01-05T14:56:32.631Z,59.94
2019-01-05T14:59:50.360Z,62.29
2019-01-05T15:02:52.056Z,60.96
2019-01-05T15:05:45.397Z,61.79
2019-01-05T15:08:38.085Z,61.04
2019-01-05T15:11:38.235Z,61.88
2019-01-05T15:14:41.447Z,61.31
2019-01-05T15:17:45.376Z,60.80
2019-01-05T15:20:45.650Z,61.85
2019-01-05T15:23:44.916Z,61.89
2019-01-05T15:26:47.581Z,61.10
2019-01-05T15:30:03.369Z,61.39
2019-01-05T15:33:11.542Z,62.06
2019-01-05T15:36:11.594Z,62.01
2019-01-05T15:39:01.710Z,62.69
2019-01-05T15:42:08.577Z,62.46
2019-01-05T15:45:03.159Z,61.82
2019-01-05T15:47:51.986Z,61.27
2019-01-05T15:50:56.056Z,61.16
2019-01-05T15:54:01.628Z,60.64
2019-01-05T15:56:56.917Z,60.01
2019-01-05T16:00:01.881Z,60.05
2019-01-05T16:02:58.258Z,60.31
2019-01-05T16:05:47.299Z,60.27
2019-01-05T16:08:41.446Z,61.66
2019-01-05T16:11:31.654Z,61.86
2019-01-05T16:14:21.436Z,61.20
2019-01-05T16:17:26.970Z,61.32
2019-01-05T16:20:33.113Z,61.17
2019-01-05T16:23:26.623Z,61.58
2019-01-05T16:26:17.644Z,60.78
2019-01-05T16:29:08.267Z,60.06
2019-01-05T16:32:11.928Z,60.79
2019-01-05T16:35:06.540Z,61.18
2019-01-05T16:38:09.264Z,60.68
2019-01-05T16:41:14.101Z,59.72
2019-01-05T16:44:12.202Z,59.76
2019-01-05T16:47:22.771Z,60.38
2019-01-05T16:50:18.285Z,59.65
2019-01-05T16:53:09.308Z,60.24
2019-01-05T16:56:04.024Z,59.72
2019-01-05T16:59:01.349Z,60.23
2019-01-05T17:01:52.733Z,59.84
2019-01-05T17:04:45.063Z,59.90
2019-01-05T17:07:57.039Z,60.49
2019-01-05T17:10:50.145Z,59.24
2019-01-05T17:13:40.994Z,59.47
2019-01-05T17:16:38.866Z,59.50
2019-01-05T17:19:36.692Z,59.58
2019-01-05T17:22:31.366Z,59.00
2019-01-05T17:25:18.290Z,58.85
2019-01-05T17:28:19.992Z,59.53
2019-01-05T17:31:18.833Z,60.06
2019-01-05T17:34:09.341Z,59.05
2019-01-05T17:37:05.240Z,59.82
2019-01-05T17:40:07.961Z,59.09
2019-01-05T17:43:10.819Z,59.43
2019-01-05T17:46:18.849Z,59.86
2019-01-05T17:49:24.495Z,60.77
2019-01-05T17:52:23.304Z,60.58
2019-01-05T17:55:16.132Z,60.96
2019-01-05T17:58:20.341Z,60.39
2019-01-05T18:01:13.697Z,59.71
2019-01-05T18:04:14.446Z,60.04
2019-01-05T18:07:11.663Z,60.34
2019-01-05T18:13:16.769Z,60.45
2019-01-05T18:16:07.210Z,59.74
2019-01-05T18:18:51.214Z,58.73
2019-01-05T18:21:53.014Z,59.19
2019-01-05T18:24:39.491Z,59.63
2019-01-05T18:27:31.322Z,59.71
2019-01-05T18:30:29.622Z,59.04
2019-01-05T18:33:29.136Z,60.26
2019-01-05T18:36:20.667Z,61.14
2019-01-05T18:39:30.711Z,60.29
2019-01-05T18:42:22.551Z,60.19
2019-01-05T18:45:18.555Z,60.33
2019-01-05T18:48:10.150Z,59.63
2019-01-05T18:51:15.312Z,59.15
2019-01-05T18:54:08.094Z,59.04
2019-01-05T18:57:02.526Z,59.48
2019-01-05T19:00:01.226Z,58.95
2019-01-05T19:02:57.816Z,59.54
2019-01-05T19:05:50.694Z,59.35
2019-01-05T19:08:45.712Z,58.99
2019-01-05T19:11:51.625Z,59.48
2019-01-05T19:15:03.853Z,58.54
2019-01-05T19:17:59.201Z,58.77
2019-01-05T19:20:54.996Z,58.67
2019-01-05T19:24:06.076Z,59.20
2019-01-05T19:27:02.410Z,58.57
2019-01-05T19:30:01.740Z,58.32
2019-01-05T19:33:00.944Z,60.05
2019-01-05T19:36:09.160Z,58.97
2019-01-05T19:39:06.631Z,58.78
2019-01-05T19:42:05.350Z,60.19
2019-01-05T19:45:05.717Z,59.02
2019-01-05T19:48:04.311Z,60.24
2019-01-05T19:50:58.322Z,59.54
2019-01-05T19:54:10.165Z,59.48
2019-01-05T19:57:02.486Z,59.82
2019-01-05T20:00:02.363Z,59.58
2019-01-05T20:03:04.792Z,59.61
2019-01-05T20:05:57.849Z,60.94
2019-01-05T20:09:02.807Z,60.11
2019-01-05T20:12:14.723Z,60.88
2019-01-05T20:15:24.457Z,62.20
2019-01-05T20:18:22.904Z,61.80
2019-01-05T20:21:21.923Z,61.79
2019-01-05T20:24:22.843Z,61.88
2019-01-05T20:27:17.260Z,62.41
2019-01-05T20:30:12.174Z,61.36
2019-01-05T20:33:01.368Z,62.09
2019-01-05T20:35:55.821Z,61.94
2019-01-05T20:38:58.138Z,60.82
2019-01-05T20:42:10.037Z,61.37
2019-01-05T20:45:09.703Z,60.93
2019-01-05T20:48:07.440Z,62.51
2019-01-05T20:50:59.392Z,61.79
2019-01-05T20:53:50.835Z,61.35
2019-01-05T20:56:53.218Z,61.82
2019-01-05T20:59:47.968Z,62.47
2019-01-05T21:02:39.407Z,61.84
2019-01-05T21:05:29.939Z,61.87
2019-01-05T21:08:30.296Z,61.26
2019-01-05T21:11:37.825Z,61.55
2019-01-05T21:14:30.220Z,61.85
2019-01-05T21:17:35.690Z,62.53
2019-01-05T21:20:29.428Z,61.82
2019-01-05T21:23:22.198Z,62.31
2019-01-05T21:26:24.461Z,61.75
2019-01-05T21:29:13.617Z,61.59
2019-01-05T21:32:13.122Z,62.45
2019-01-05T21:35:03.024Z,61.06
2019-01-05T21:38:03.285Z,62.02
2019-01-05T21:41:08.552Z,60.66
2019-01-05T21:43:57.845Z,60.91
2019-01-05T21:47:06.590Z,60.78
2019-01-05T21:50:17.058Z,61.94
2019-01-05T21:53:10.245Z,61.46
2019-01-05T21:56:01.153Z,61.28
2019-01-05T21:58:51.823Z,61.57
2019-01-05T22:01:39.745Z,61.49
2019-01-05T22:04:44.614Z,61.13
2019-01-05T22:07:33.502Z,60.25
2019-01-05T22:10:33.432Z,60.59
2019-01-05T22:13:24.974Z,60.15
2019-01-05T22:16:26.406Z,59.99
2019-01-05T22:19:21.430Z,60.00
2019-01-05T22:22:10.734Z,59.87
2019-01-05T22:25:00.401Z,60.27
2019-01-05T22:28:14.188Z,59.81
2019-01-05T22:31:04.742Z,59.13
2019-01-05T22:34:06.832Z,59.33
2019-01-05T22:37:19.052Z,59.02
2019-01-05T22:40:19.560Z,60.43
2019-01-05T22:43:16.040Z,59.35
2019-01-05T22:46:16.936Z,59.63
2019-01-05T22:49:11.770Z,58.98
2019-01-05T22:52:15.277Z,59.55
2019-01-05T22:55:16.462Z,58.21
2019-01-05T22:58:10.257Z,59.51
2019-01-05T23:01:17.030Z,58.99
2019-01-05T23:04:08.069Z,58.75
2019-01-05T23:07:10.198Z,58.83
2019-01-05T23:10:05.003Z,58.27
2019-01-05T23:13:19.895Z,57.98
2019-01-05T23:16:19.072Z,57.60
2019-01-05T23:19:09.329Z,60.03
2019-01-05T23:22:19.324Z,59.00
2019-01-05T23:25:11.056Z,58.02
2019-01-05T23:28:15.047Z,58.22
2019-01-05T23:31:25.142Z,58.46
2019-01-05T23:34:28.384Z,57.89
2019-01-05T23:37:20.080Z,57.99
2019-01-05T23:40:32.643Z,58.25
2019-01-05T23:43:25.243Z,58.27
2019-01-05T23:46:22.965Z,57.70
2019-01-05T23:49:19.748Z,58.01
2019-01-05T23:52:18.591Z,56.98
2019-01-05T23:55:14.432Z,57.15
2019-01-05T23:58:09.826Z,56.90
